Preston, Idaho
Current Conditions -  °F | °C
As of 10:51 AM on Sunday 21 Dec 2014 (Local Time) from KLGU Reporting Station
Light Rain Light Rain  
Wind Chill: 42°   Ceiling: 4100
Heat Index: 42°   Visibility: 10mi
Dew Point: 37°   Wind: 0mph
Humidity: 82%   Direction: NA
Pressure: 29.89"   Gusts: NA
Location:  42.1°N, 111.88°W
Report Text: KLGU 211751Z AUTO 00000KT 10SM -RA SCT032 BKN041 OVC055 06/03 A2989 RMK AO2 SLP115 P0001 60019 T00560028 10056 20039 50002
Loading
Personal Weather Stations






























Interactive Weather Map New forecast layout! Learn more

10-Day Weather Forecast

Advertisements
Track Severe Weather on mobile